sensor_id;sensor_type;location;lat;lon;timestamp;P1;durP1;ratioP1;P2;durP2;ratioP2
21305;SDS011;10812;51.838;5.838;2023-03-30T00:01:20;8.70;;;3.27;;
21305;SDS011;10812;51.838;5.838;2023-03-30T00:03:48;7.77;;;3.10;;
21305;SDS011;10812;51.838;5.838;2023-03-30T00:06:17;4.80;;;2.97;;
21305;SDS011;10812;51.838;5.838;2023-03-30T00:08:50;5.20;;;2.70;;
21305;SDS011;10812;51.838;5.838;2023-03-30T00:11:23;9.27;;;3.37;;
21305;SDS011;10812;51.838;5.838;2023-03-30T00:13:52;4.43;;;2.60;;
21305;SDS011;10812;51.838;5.838;2023-03-30T00:16:20;5.07;;;2.50;;
21305;SDS011;10812;51.838;5.838;2023-03-30T00:18:48;5.53;;;2.70;;
21305;SDS011;10812;51.838;5.838;2023-03-30T00:21:17;5.83;;;3.00;;
21305;SDS011;10812;51.838;5.838;2023-03-30T00:23:45;3.93;;;2.30;;
21305;SDS011;10812;51.838;5.838;2023-03-30T00:26:16;4.90;;;2.33;;
21305;SDS011;10812;51.838;5.838;2023-03-30T00:28:44;2.70;;;2.37;;
21305;SDS011;10812;51.838;5.838;2023-03-30T00:31:13;4.83;;;2.57;;
21305;SDS011;10812;51.838;5.838;2023-03-30T00:33:41;4.70;;;2.80;;
21305;SDS011;10812;51.838;5.838;2023-03-30T00:36:13;4.77;;;2.13;;
21305;SDS011;10812;51.838;5.838;2023-03-30T00:38:41;5.93;;;2.47;;
21305;SDS011;10812;51.838;5.838;2023-03-30T00:41:11;6.30;;;2.50;;
21305;SDS011;10812;51.838;5.838;2023-03-30T00:43:59;5.53;;;2.40;;
21305;SDS011;10812;51.838;5.838;2023-03-30T00:46:28;2.87;;;2.00;;
21305;SDS011;10812;51.838;5.838;2023-03-30T00:48:58;4.57;;;2.10;;
21305;SDS011;10812;51.838;5.838;2023-03-30T00:51:30;10.47;;;2.63;;
21305;SDS011;10812;51.838;5.838;2023-03-30T00:54:01;4.93;;;2.30;;
21305;SDS011;10812;51.838;5.838;2023-03-30T00:56:33;8.07;;;2.27;;
21305;SDS011;10812;51.838;5.838;2023-03-30T00:59:03;4.87;;;2.23;;
21305;SDS011;10812;51.838;5.838;2023-03-30T01:01:31;3.27;;;2.03;;
21305;SDS011;10812;51.838;5.838;2023-03-30T01:04:05;6.20;;;2.33;;
21305;SDS011;10812;51.838;5.838;2023-03-30T01:06:36;5.53;;;2.07;;
21305;SDS011;10812;51.838;5.838;2023-03-30T01:09:10;6.80;;;2.30;;
21305;SDS011;10812;51.838;5.838;2023-03-30T01:11:40;5.93;;;2.37;;
21305;SDS011;10812;51.838;5.838;2023-03-30T01:14:11;4.77;;;2.03;;
21305;SDS011;10812;51.838;5.838;2023-03-30T01:16:42;5.07;;;2.23;;
21305;SDS011;10812;51.838;5.838;2023-03-30T01:22:28;2.97;;;1.73;;
21305;SDS011;10812;51.838;5.838;2023-03-30T01:25:21;5.10;;;2.40;;
21305;SDS011;10812;51.838;5.838;2023-03-30T01:28:14;5.57;;;2.10;;
21305;SDS011;10812;51.838;5.838;2023-03-30T01:31:04;3.40;;;2.00;;
21305;SDS011;10812;51.838;5.838;2023-03-30T01:33:53;2.53;;;1.73;;
21305;SDS011;10812;51.838;5.838;2023-03-30T01:36:45;3.20;;;2.17;;
21305;SDS011;10812;51.838;5.838;2023-03-30T01:39:41;4.77;;;2.07;;
21305;SDS011;10812;51.838;5.838;2023-03-30T01:42:16;3.43;;;2.00;;
21305;SDS011;10812;51.838;5.838;2023-03-30T01:44:50;4.20;;;2.40;;
21305;SDS011;10812;51.838;5.838;2023-03-30T01:47:24;7.00;;;2.30;;
21305;SDS011;10812;51.838;5.838;2023-03-30T01:50:00;5.67;;;2.30;;
21305;SDS011;10812;51.838;5.838;2023-03-30T01:52:35;2.73;;;1.93;;
21305;SDS011;10812;51.838;5.838;2023-03-30T01:55:09;5.43;;;2.17;;
21305;SDS011;10812;51.838;5.838;2023-03-30T01:57:44;2.87;;;1.93;;
21305;SDS011;10812;51.838;5.838;2023-03-30T02:00:17;4.90;;;2.63;;
21305;SDS011;10812;51.838;5.838;2023-03-30T02:02:50;3.73;;;1.90;;
21305;SDS011;10812;51.838;5.838;2023-03-30T02:05:21;5.40;;;2.13;;
21305;SDS011;10812;51.838;5.838;2023-03-30T02:07:51;4.03;;;1.80;;
21305;SDS011;10812;51.838;5.838;2023-03-30T02:10:23;2.53;;;1.80;;
21305;SDS011;10812;51.838;5.838;2023-03-30T02:12:55;2.27;;;1.43;;
21305;SDS011;10812;51.838;5.838;2023-03-30T02:15:25;2.47;;;1.50;;
21305;SDS011;10812;51.838;5.838;2023-03-30T02:18:02;3.93;;;1.50;;
21305;SDS011;10812;51.838;5.838;2023-03-30T02:20:31;5.10;;;1.60;;
21305;SDS011;10812;51.838;5.838;2023-03-30T02:23:00;3.57;;;1.70;;
21305;SDS011;10812;51.838;5.838;2023-03-30T02:25:33;6.37;;;1.77;;
21305;SDS011;10812;51.838;5.838;2023-03-30T02:28:04;2.83;;;1.37;;
21305;SDS011;10812;51.838;5.838;2023-03-30T02:30:33;5.70;;;1.73;;
21305;SDS011;10812;51.838;5.838;2023-03-30T02:33:05;3.37;;;1.50;;
21305;SDS011;10812;51.838;5.838;2023-03-30T02:35:42;2.87;;;1.50;;
21305;SDS011;10812;51.838;5.838;2023-03-30T02:41:27;5.07;;;1.80;;
21305;SDS011;10812;51.838;5.838;2023-03-30T02:44:19;3.77;;;1.83;;
21305;SDS011;10812;51.838;5.838;2023-03-30T02:46:57;2.90;;;1.60;;
21305;SDS011;10812;51.838;5.838;2023-03-30T02:49:34;2.27;;;1.60;;
21305;SDS011;10812;51.838;5.838;2023-03-30T02:52:15;2.50;;;1.60;;
21305;SDS011;10812;51.838;5.838;2023-03-30T02:58:22;3.00;;;1.70;;
21305;SDS011;10812;51.838;5.838;2023-03-30T03:06:27;4.87;;;1.83;;
21305;SDS011;10812;51.838;5.838;2023-03-30T03:12:33;3.93;;;1.43;;
21305;SDS011;10812;51.838;5.838;2023-03-30T03:15:04;3.70;;;2.77;;
21305;SDS011;10812;51.838;5.838;2023-03-30T03:17:32;5.07;;;1.93;;
21305;SDS011;10812;51.838;5.838;2023-03-30T03:20:00;2.57;;;1.40;;
21305;SDS011;10812;51.838;5.838;2023-03-30T03:22:29;5.27;;;1.67;;
21305;SDS011;10812;51.838;5.838;2023-03-30T03:24:58;5.40;;;1.70;;
21305;SDS011;10812;51.838;5.838;2023-03-30T03:27:27;1.57;;;1.10;;
21305;SDS011;10812;51.838;5.838;2023-03-30T03:29:56;4.43;;;1.30;;
21305;SDS011;10812;51.838;5.838;2023-03-30T03:32:25;3.90;;;1.50;;
21305;SDS011;10812;51.838;5.838;2023-03-30T03:34:53;2.80;;;1.30;;
21305;SDS011;10812;51.838;5.838;2023-03-30T03:37:21;1.70;;;1.07;;
21305;SDS011;10812;51.838;5.838;2023-03-30T03:39:49;3.20;;;1.20;;
21305;SDS011;10812;51.838;5.838;2023-03-30T03:42:17;2.43;;;1.07;;
21305;SDS011;10812;51.838;5.838;2023-03-30T03:44:46;2.27;;;1.20;;
21305;SDS011;10812;51.838;5.838;2023-03-30T03:47:14;8.43;;;1.67;;
21305;SDS011;10812;51.838;5.838;2023-03-30T03:49:43;2.43;;;1.03;;
21305;SDS011;10812;51.838;5.838;2023-03-30T03:52:11;4.50;;;1.57;;
21305;SDS011;10812;51.838;5.838;2023-03-30T03:54:39;2.23;;;1.13;;
21305;SDS011;10812;51.838;5.838;2023-03-30T03:57:07;2.10;;;1.03;;
21305;SDS011;10812;51.838;5.838;2023-03-30T03:59:36;3.10;;;0.97;;
21305;SDS011;10812;51.838;5.838;2023-03-30T04:02:04;3.17;;;1.10;;
21305;SDS011;10812;51.838;5.838;2023-03-30T04:04:32;1.87;;;0.90;;
21305;SDS011;10812;51.838;5.838;2023-03-30T04:07:01;2.47;;;1.33;;
21305;SDS011;10812;51.838;5.838;2023-03-30T04:09:30;5.60;;;1.70;;
21305;SDS011;10812;51.838;5.838;2023-03-30T04:11:58;3.67;;;1.40;;
21305;SDS011;10812;51.838;5.838;2023-03-30T04:14:27;3.33;;;1.20;;
21305;SDS011;10812;51.838;5.838;2023-03-30T04:16:55;3.33;;;1.77;;
21305;SDS011;10812;51.838;5.838;2023-03-30T04:19:23;5.03;;;1.60;;
21305;SDS011;10812;51.838;5.838;2023-03-30T04:21:53;2.77;;;1.70;;
21305;SDS011;10812;51.838;5.838;2023-03-30T04:24:22;1.53;;;1.30;;
21305;SDS011;10812;51.838;5.838;2023-03-30T04:26:51;1.70;;;1.23;;
21305;SDS011;10812;51.838;5.838;2023-03-30T04:29:19;2.30;;;1.10;;
21305;SDS011;10812;51.838;5.838;2023-03-30T04:31:47;3.17;;;1.20;;
21305;SDS011;10812;51.838;5.838;2023-03-30T04:34:16;3.43;;;1.47;;
21305;SDS011;10812;51.838;5.838;2023-03-30T04:36:47;2.73;;;1.20;;
21305;SDS011;10812;51.838;5.838;2023-03-30T04:39:15;3.57;;;1.27;;
21305;SDS011;10812;51.838;5.838;2023-03-30T04:41:47;2.93;;;1.37;;
21305;SDS011;10812;51.838;5.838;2023-03-30T04:44:17;2.63;;;1.30;;
21305;SDS011;10812;51.838;5.838;2023-03-30T04:46:46;5.20;;;1.77;;
21305;SDS011;10812;51.838;5.838;2023-03-30T04:49:14;3.40;;;1.70;;
21305;SDS011;10812;51.838;5.838;2023-03-30T04:51:42;3.33;;;1.53;;
21305;SDS011;10812;51.838;5.838;2023-03-30T04:54:10;7.87;;;1.60;;
21305;SDS011;10812;51.838;5.838;2023-03-30T04:56:38;3.67;;;1.30;;
21305;SDS011;10812;51.838;5.838;2023-03-30T04:59:08;3.50;;;1.47;;
21305;SDS011;10812;51.838;5.838;2023-03-30T05:01:36;4.03;;;1.70;;
21305;SDS011;10812;51.838;5.838;2023-03-30T05:04:04;4.33;;;1.40;;
21305;SDS011;10812;51.838;5.838;2023-03-30T05:06:32;2.17;;;1.37;;
21305;SDS011;10812;51.838;5.838;2023-03-30T05:09:00;2.60;;;1.43;;
21305;SDS011;10812;51.838;5.838;2023-03-30T05:11:29;4.10;;;1.73;;
21305;SDS011;10812;51.838;5.838;2023-03-30T05:13:57;4.37;;;1.33;;
21305;SDS011;10812;51.838;5.838;2023-03-30T05:16:26;3.07;;;1.30;;
21305;SDS011;10812;51.838;5.838;2023-03-30T05:18:54;6.53;;;1.77;;
21305;SDS011;10812;51.838;5.838;2023-03-30T05:21:23;2.83;;;1.73;;
21305;SDS011;10812;51.838;5.838;2023-03-30T05:23:51;4.87;;;1.57;;
21305;SDS011;10812;51.838;5.838;2023-03-30T05:26:19;4.63;;;1.90;;
21305;SDS011;10812;51.838;5.838;2023-03-30T05:28:47;5.03;;;1.47;;
21305;SDS011;10812;51.838;5.838;2023-03-30T05:31:15;4.90;;;1.70;;
21305;SDS011;10812;51.838;5.838;2023-03-30T05:33:46;4.70;;;1.70;;
21305;SDS011;10812;51.838;5.838;2023-03-30T05:36:14;7.00;;;2.33;;
21305;SDS011;10812;51.838;5.838;2023-03-30T05:38:42;4.30;;;1.40;;
21305;SDS011;10812;51.838;5.838;2023-03-30T05:41:11;3.90;;;1.93;;
21305;SDS011;10812;51.838;5.838;2023-03-30T05:43:39;6.17;;;2.40;;
21305;SDS011;10812;51.838;5.838;2023-03-30T05:46:07;4.97;;;1.70;;
21305;SDS011;10812;51.838;5.838;2023-03-30T05:48:35;7.03;;;2.00;;
21305;SDS011;10812;51.838;5.838;2023-03-30T05:51:05;4.47;;;1.90;;
21305;SDS011;10812;51.838;5.838;2023-03-30T05:53:34;6.33;;;2.10;;
21305;SDS011;10812;51.838;5.838;2023-03-30T05:56:02;4.33;;;1.97;;
21305;SDS011;10812;51.838;5.838;2023-03-30T05:58:32;7.50;;;2.20;;
21305;SDS011;10812;51.838;5.838;2023-03-30T06:01:00;6.10;;;2.37;;
21305;SDS011;10812;51.838;5.838;2023-03-30T06:03:31;3.40;;;2.03;;
21305;SDS011;10812;51.838;5.838;2023-03-30T06:05:59;6.27;;;2.23;;
21305;SDS011;10812;51.838;5.838;2023-03-30T06:08:29;8.20;;;2.60;;
21305;SDS011;10812;51.838;5.838;2023-03-30T06:10:57;5.03;;;2.40;;
21305;SDS011;10812;51.838;5.838;2023-03-30T06:13:26;3.90;;;1.80;;
21305;SDS011;10812;51.838;5.838;2023-03-30T06:15:54;7.23;;;2.50;;
21305;SDS011;10812;51.838;5.838;2023-03-30T06:18:26;4.40;;;2.50;;
21305;SDS011;10812;51.838;5.838;2023-03-30T06:20:54;7.63;;;2.67;;
21305;SDS011;10812;51.838;5.838;2023-03-30T06:23:22;5.93;;;2.70;;
21305;SDS011;10812;51.838;5.838;2023-03-30T06:25:52;6.17;;;2.33;;
21305;SDS011;10812;51.838;5.838;2023-03-30T06:28:21;4.00;;;2.30;;
21305;SDS011;10812;51.838;5.838;2023-03-30T06:30:49;4.00;;;2.00;;
21305;SDS011;10812;51.838;5.838;2023-03-30T06:33:17;8.13;;;2.33;;
21305;SDS011;10812;51.838;5.838;2023-03-30T06:35:45;6.23;;;2.60;;
21305;SDS011;10812;51.838;5.838;2023-03-30T06:38:14;7.60;;;2.90;;
21305;SDS011;10812;51.838;5.838;2023-03-30T06:40:43;4.80;;;2.20;;
21305;SDS011;10812;51.838;5.838;2023-03-30T06:43:14;6.63;;;2.27;;
21305;SDS011;10812;51.838;5.838;2023-03-30T06:45:48;7.00;;;2.63;;
21305;SDS011;10812;51.838;5.838;2023-03-30T06:48:17;8.93;;;2.50;;
21305;SDS011;10812;51.838;5.838;2023-03-30T06:50:47;4.83;;;2.30;;
21305;SDS011;10812;51.838;5.838;2023-03-30T06:53:16;9.67;;;3.23;;
21305;SDS011;10812;51.838;5.838;2023-03-30T06:55:49;6.93;;;2.30;;
21305;SDS011;10812;51.838;5.838;2023-03-30T06:58:19;4.77;;;1.60;;
21305;SDS011;10812;51.838;5.838;2023-03-30T07:00:47;5.47;;;1.80;;
21305;SDS011;10812;51.838;5.838;2023-03-30T07:03:16;4.97;;;2.37;;
21305;SDS011;10812;51.838;5.838;2023-03-30T07:05:46;7.63;;;2.23;;
21305;SDS011;10812;51.838;5.838;2023-03-30T07:08:14;10.77;;;2.30;;
21305;SDS011;10812;51.838;5.838;2023-03-30T07:10:44;5.33;;;2.10;;
21305;SDS011;10812;51.838;5.838;2023-03-30T07:13:13;6.90;;;1.90;;
21305;SDS011;10812;51.838;5.838;2023-03-30T07:15:43;7.70;;;2.63;;
21305;SDS011;10812;51.838;5.838;2023-03-30T07:18:12;7.40;;;2.03;;
21305;SDS011;10812;51.838;5.838;2023-03-30T07:20:40;6.30;;;2.37;;
21305;SDS011;10812;51.838;5.838;2023-03-30T07:23:09;8.13;;;2.50;;
21305;SDS011;10812;51.838;5.838;2023-03-30T07:25:38;9.17;;;2.47;;
21305;SDS011;10812;51.838;5.838;2023-03-30T07:28:06;9.00;;;2.20;;
21305;SDS011;10812;51.838;5.838;2023-03-30T07:30:35;5.33;;;1.90;;
21305;SDS011;10812;51.838;5.838;2023-03-30T07:33:05;7.20;;;2.40;;
21305;SDS011;10812;51.838;5.838;2023-03-30T07:35:33;7.47;;;1.80;;
21305;SDS011;10812;51.838;5.838;2023-03-30T07:38:02;5.38;;;1.48;;
21305;SDS011;10812;51.838;5.838;2023-03-30T07:40:30;5.30;;;2.15;;
21305;SDS011;10812;51.838;5.838;2023-03-30T07:42:58;6.88;;;1.98;;
21305;SDS011;10812;51.838;5.838;2023-03-30T07:45:26;5.47;;;1.98;;
21305;SDS011;10812;51.838;5.838;2023-03-30T07:47:55;9.55;;;2.05;;
21305;SDS011;10812;51.838;5.838;2023-03-30T07:50:24;5.90;;;2.08;;
21305;SDS011;10812;51.838;5.838;2023-03-30T07:52:52;7.38;;;1.88;;
21305;SDS011;10812;51.838;5.838;2023-03-30T07:55:21;7.55;;;2.33;;
21305;SDS011;10812;51.838;5.838;2023-03-30T07:57:49;8.18;;;2.20;;
21305;SDS011;10812;51.838;5.838;2023-03-30T08:00:18;5.67;;;1.70;;
21305;SDS011;10812;51.838;5.838;2023-03-30T08:02:47;5.03;;;1.70;;
21305;SDS011;10812;51.838;5.838;2023-03-30T08:05:16;7.47;;;2.00;;
21305;SDS011;10812;51.838;5.838;2023-03-30T08:07:45;6.23;;;2.40;;
21305;SDS011;10812;51.838;5.838;2023-03-30T08:10:14;4.10;;;1.63;;
21305;SDS011;10812;51.838;5.838;2023-03-30T08:12:42;7.63;;;2.23;;
21305;SDS011;10812;51.838;5.838;2023-03-30T08:15:10;4.97;;;1.90;;
21305;SDS011;10812;51.838;5.838;2023-03-30T08:17:38;5.30;;;2.17;;
21305;SDS011;10812;51.838;5.838;2023-03-30T08:20:07;8.80;;;2.23;;
21305;SDS011;10812;51.838;5.838;2023-03-30T08:22:37;11.80;;;2.60;;
21305;SDS011;10812;51.838;5.838;2023-03-30T08:25:07;9.53;;;2.47;;
21305;SDS011;10812;51.838;5.838;2023-03-30T08:27:36;8.30;;;1.80;;
21305;SDS011;10812;51.838;5.838;2023-03-30T08:30:04;8.57;;;2.53;;
21305;SDS011;10812;51.838;5.838;2023-03-30T08:32:33;10.50;;;2.73;;
21305;SDS011;10812;51.838;5.838;2023-03-30T08:35:01;9.17;;;2.33;;
21305;SDS011;10812;51.838;5.838;2023-03-30T08:37:30;9.97;;;2.10;;
21305;SDS011;10812;51.838;5.838;2023-03-30T08:39:58;9.27;;;2.50;;
21305;SDS011;10812;51.838;5.838;2023-03-30T08:42:34;9.43;;;2.33;;
21305;SDS011;10812;51.838;5.838;2023-03-30T08:45:19;5.77;;;2.30;;
21305;SDS011;10812;51.838;5.838;2023-03-30T08:47:48;9.40;;;1.73;;
21305;SDS011;10812;51.838;5.838;2023-03-30T08:50:20;11.27;;;2.47;;
21305;SDS011;10812;51.838;5.838;2023-03-30T08:52:56;10.70;;;2.70;;
21305;SDS011;10812;51.838;5.838;2023-03-30T08:55:26;8.70;;;2.63;;
21305;SDS011;10812;51.838;5.838;2023-03-30T08:58:01;13.23;;;2.37;;
21305;SDS011;10812;51.838;5.838;2023-03-30T09:00:34;7.20;;;2.30;;
21305;SDS011;10812;51.838;5.838;2023-03-30T09:03:09;10.53;;;2.73;;
21305;SDS011;10812;51.838;5.838;2023-03-30T09:05:45;9.70;;;2.27;;
21305;SDS011;10812;51.838;5.838;2023-03-30T09:08:18;7.80;;;2.37;;
21305;SDS011;10812;51.838;5.838;2023-03-30T09:10:50;6.60;;;1.87;;
21305;SDS011;10812;51.838;5.838;2023-03-30T09:13:25;7.47;;;1.90;;
21305;SDS011;10812;51.838;5.838;2023-03-30T09:15:56;9.33;;;2.83;;
21305;SDS011;10812;51.838;5.838;2023-03-30T09:18:29;9.57;;;2.07;;
21305;SDS011;10812;51.838;5.838;2023-03-30T09:21:00;9.70;;;2.33;;
21305;SDS011;10812;51.838;5.838;2023-03-30T09:23:31;8.13;;;2.57;;
21305;SDS011;10812;51.838;5.838;2023-03-30T09:26:05;9.50;;;3.17;;
21305;SDS011;10812;51.838;5.838;2023-03-30T09:28:42;9.97;;;2.40;;
21305;SDS011;10812;51.838;5.838;2023-03-30T09:31:16;7.87;;;2.00;;
21305;SDS011;10812;51.838;5.838;2023-03-30T09:33:50;9.20;;;2.17;;
21305;SDS011;10812;51.838;5.838;2023-03-30T09:36:24;8.60;;;2.10;;
21305;SDS011;10812;51.838;5.838;2023-03-30T09:38:57;10.60;;;2.17;;
21305;SDS011;10812;51.838;5.838;2023-03-30T09:41:35;14.17;;;2.80;;
21305;SDS011;10812;51.838;5.838;2023-03-30T09:44:17;12.70;;;2.57;;
21305;SDS011;10812;51.838;5.838;2023-03-30T09:46:51;6.30;;;2.10;;
21305;SDS011;10812;51.838;5.838;2023-03-30T09:49:25;12.77;;;2.73;;
21305;SDS011;10812;51.838;5.838;2023-03-30T09:51:55;7.90;;;2.23;;
21305;SDS011;10812;51.838;5.838;2023-03-30T09:54:35;8.93;;;2.77;;
21305;SDS011;10812;51.838;5.838;2023-03-30T09:57:04;7.93;;;2.13;;
21305;SDS011;10812;51.838;5.838;2023-03-30T09:59:34;8.83;;;2.33;;
21305;SDS011;10812;51.838;5.838;2023-03-30T10:02:16;13.43;;;2.70;;
21305;SDS011;10812;51.838;5.838;2023-03-30T10:04:59;11.83;;;2.87;;
21305;SDS011;10812;51.838;5.838;2023-03-30T10:07:30;12.88;;;2.80;;
21305;SDS011;10812;51.838;5.838;2023-03-30T10:10:01;7.90;;;2.85;;
21305;SDS011;10812;51.838;5.838;2023-03-30T10:12:39;9.18;;;2.67;;
21305;SDS011;10812;51.838;5.838;2023-03-30T10:15:13;8.73;;;2.63;;
21305;SDS011;10812;51.838;5.838;2023-03-30T10:17:43;8.73;;;3.08;;
21305;SDS011;10812;51.838;5.838;2023-03-30T10:20:15;6.32;;;2.70;;
21305;SDS011;10812;51.838;5.838;2023-03-30T10:22:51;11.38;;;2.78;;
21305;SDS011;10812;51.838;5.838;2023-03-30T10:25:21;9.38;;;2.95;;
21305;SDS011;10812;51.838;5.838;2023-03-30T10:27:53;7.97;;;2.50;;
21305;SDS011;10812;51.838;5.838;2023-03-30T10:30:24;10.45;;;3.10;;
21305;SDS011;10812;51.838;5.838;2023-03-30T10:32:55;8.70;;;2.60;;
21305;SDS011;10812;51.838;5.838;2023-03-30T10:35:26;16.08;;;3.13;;
21305;SDS011;10812;51.838;5.838;2023-03-30T10:38:00;7.25;;;2.38;;
21305;SDS011;10812;51.838;5.838;2023-03-30T10:43:55;11.38;;;2.42;;
21305;SDS011;10812;51.838;5.838;2023-03-30T10:46:24;15.70;;;3.65;;
21305;SDS011;10812;51.838;5.838;2023-03-30T10:48:56;8.67;;;2.40;;
21305;SDS011;10812;51.838;5.838;2023-03-30T10:51:38;11.50;;;2.92;;
21305;SDS011;10812;51.838;5.838;2023-03-30T10:54:15;9.77;;;2.80;;
21305;SDS011;10812;51.838;5.838;2023-03-30T10:56:49;11.18;;;3.13;;
21305;SDS011;10812;51.838;5.838;2023-03-30T11:02:47;11.40;;;3.17;;
21305;SDS011;10812;51.838;5.838;2023-03-30T11:05:21;10.45;;;3.08;;
21305;SDS011;10812;51.838;5.838;2023-03-30T11:07:59;13.27;;;3.30;;
21305;SDS011;10812;51.838;5.838;2023-03-30T11:10:29;10.65;;;2.97;;
21305;SDS011;10812;51.838;5.838;2023-03-30T11:12:59;11.40;;;3.13;;
21305;SDS011;10812;51.838;5.838;2023-03-30T11:15:32;10.65;;;3.05;;
21305;SDS011;10812;51.838;5.838;2023-03-30T11:18:08;11.70;;;3.13;;
21305;SDS011;10812;51.838;5.838;2023-03-30T11:20:41;6.28;;;2.50;;
21305;SDS011;10812;51.838;5.838;2023-03-30T11:23:15;8.30;;;3.08;;
21305;SDS011;10812;51.838;5.838;2023-03-30T11:25:54;7.60;;;3.00;;
21305;SDS011;10812;51.838;5.838;2023-03-30T11:28:42;9.98;;;2.55;;
21305;SDS011;10812;51.838;5.838;2023-03-30T11:31:25;6.32;;;2.50;;
21305;SDS011;10812;51.838;5.838;2023-03-30T11:34:06;13.32;;;2.22;;
21305;SDS011;10812;51.838;5.838;2023-03-30T11:36:44;7.78;;;2.40;;
21305;SDS011;10812;51.838;5.838;2023-03-30T11:39:22;9.02;;;2.50;;
21305;SDS011;10812;51.838;5.838;2023-03-30T11:41:59;11.68;;;2.90;;
21305;SDS011;10812;51.838;5.838;2023-03-30T11:44:33;9.50;;;2.83;;
21305;SDS011;10812;51.838;5.838;2023-03-30T11:47:05;11.88;;;2.65;;
21305;SDS011;10812;51.838;5.838;2023-03-30T11:49:51;7.38;;;2.35;;
21305;SDS011;10812;51.838;5.838;2023-03-30T11:52:32;11.10;;;2.78;;
21305;SDS011;10812;51.838;5.838;2023-03-30T11:55:14;7.88;;;2.17;;
21305;SDS011;10812;51.838;5.838;2023-03-30T11:57:50;8.15;;;2.08;;
21305;SDS011;10812;51.838;5.838;2023-03-30T12:00:36;8.97;;;2.67;;
21305;SDS011;10812;51.838;5.838;2023-03-30T12:03:19;9.13;;;2.50;;
21305;SDS011;10812;51.838;5.838;2023-03-30T12:06:08;13.20;;;2.57;;
21305;SDS011;10812;51.838;5.838;2023-03-30T12:08:58;9.20;;;2.93;;
21305;SDS011;10812;51.838;5.838;2023-03-30T12:11:40;9.77;;;2.70;;
21305;SDS011;10812;51.838;5.838;2023-03-30T12:14:27;7.47;;;2.50;;
21305;SDS011;10812;51.838;5.838;2023-03-30T12:17:04;11.73;;;2.93;;
21305;SDS011;10812;51.838;5.838;2023-03-30T12:19:40;15.33;;;3.80;;
21305;SDS011;10812;51.838;5.838;2023-03-30T12:22:24;11.77;;;3.07;;
21305;SDS011;10812;51.838;5.838;2023-03-30T12:24:59;11.27;;;2.90;;
21305;SDS011;10812;51.838;5.838;2023-03-30T12:27:35;11.80;;;3.40;;
21305;SDS011;10812;51.838;5.838;2023-03-30T12:30:22;7.37;;;2.87;;
21305;SDS011;10812;51.838;5.838;2023-03-30T12:32:56;8.73;;;2.73;;
21305;SDS011;10812;51.838;5.838;2023-03-30T12:38:22;7.50;;;3.00;;
21305;SDS011;10812;51.838;5.838;2023-03-30T12:40:52;9.83;;;2.93;;
21305;SDS011;10812;51.838;5.838;2023-03-30T12:43:43;10.97;;;3.00;;
21305;SDS011;10812;51.838;5.838;2023-03-30T12:46:16;12.80;;;3.50;;
21305;SDS011;10812;51.838;5.838;2023-03-30T12:48:53;14.77;;;3.57;;
21305;SDS011;10812;51.838;5.838;2023-03-30T12:51:41;12.90;;;3.40;;
21305;SDS011;10812;51.838;5.838;2023-03-30T12:54:22;16.30;;;3.80;;
21305;SDS011;10812;51.838;5.838;2023-03-30T12:57:07;11.37;;;2.80;;
21305;SDS011;10812;51.838;5.838;2023-03-30T12:59:55;11.77;;;2.67;;
21305;SDS011;10812;51.838;5.838;2023-03-30T13:05:29;11.57;;;3.10;;
21305;SDS011;10812;51.838;5.838;2023-03-30T13:08:01;12.97;;;3.53;;
21305;SDS011;10812;51.838;5.838;2023-03-30T13:10:39;11.13;;;2.20;;
21305;SDS011;10812;51.838;5.838;2023-03-30T13:13:15;11.33;;;2.33;;
21305;SDS011;10812;51.838;5.838;2023-03-30T13:15:48;13.90;;;2.53;;
21305;SDS011;10812;51.838;5.838;2023-03-30T13:21:22;8.90;;;2.70;;
21305;SDS011;10812;51.838;5.838;2023-03-30T13:24:02;10.40;;;2.30;;
21305;SDS011;10812;51.838;5.838;2023-03-30T13:26:49;14.57;;;3.60;;
21305;SDS011;10812;51.838;5.838;2023-03-30T13:29:19;5.50;;;2.00;;
21305;SDS011;10812;51.838;5.838;2023-03-30T13:32:02;12.80;;;2.80;;
21305;SDS011;10812;51.838;5.838;2023-03-30T13:34:45;11.63;;;3.47;;
21305;SDS011;10812;51.838;5.838;2023-03-30T13:37:46;13.17;;;3.20;;
21305;SDS011;10812;51.838;5.838;2023-03-30T13:40:36;9.47;;;2.63;;
21305;SDS011;10812;51.838;5.838;2023-03-30T13:43:34;11.13;;;2.40;;
21305;SDS011;10812;51.838;5.838;2023-03-30T13:46:15;15.80;;;3.60;;
21305;SDS011;10812;51.838;5.838;2023-03-30T13:48:58;5.93;;;2.10;;
21305;SDS011;10812;51.838;5.838;2023-03-30T13:51:36;11.53;;;2.50;;
21305;SDS011;10812;51.838;5.838;2023-03-30T13:54:10;5.83;;;2.20;;
21305;SDS011;10812;51.838;5.838;2023-03-30T13:56:42;9.77;;;3.00;;
21305;SDS011;10812;51.838;5.838;2023-03-30T13:59:16;12.00;;;3.50;;
21305;SDS011;10812;51.838;5.838;2023-03-30T14:01:47;12.90;;;3.07;;
21305;SDS011;10812;51.838;5.838;2023-03-30T14:04:19;11.03;;;2.43;;
21305;SDS011;10812;51.838;5.838;2023-03-30T14:06:47;9.33;;;2.13;;
21305;SDS011;10812;51.838;5.838;2023-03-30T14:09:18;9.10;;;2.03;;
21305;SDS011;10812;51.838;5.838;2023-03-30T14:11:49;7.07;;;1.83;;
21305;SDS011;10812;51.838;5.838;2023-03-30T14:14:23;8.93;;;2.20;;
21305;SDS011;10812;51.838;5.838;2023-03-30T14:16:54;7.73;;;2.67;;
21305;SDS011;10812;51.838;5.838;2023-03-30T14:19:24;8.63;;;2.53;;
21305;SDS011;10812;51.838;5.838;2023-03-30T14:21:55;10.17;;;2.20;;
21305;SDS011;10812;51.838;5.838;2023-03-30T14:24:27;7.67;;;2.00;;
21305;SDS011;10812;51.838;5.838;2023-03-30T14:27:00;7.80;;;2.13;;
21305;SDS011;10812;51.838;5.838;2023-03-30T14:29:30;8.80;;;2.60;;
21305;SDS011;10812;51.838;5.838;2023-03-30T14:31:59;8.00;;;2.03;;
21305;SDS011;10812;51.838;5.838;2023-03-30T14:34:35;8.40;;;2.23;;
21305;SDS011;10812;51.838;5.838;2023-03-30T14:37:03;11.47;;;3.10;;
21305;SDS011;10812;51.838;5.838;2023-03-30T14:39:36;9.87;;;2.23;;
21305;SDS011;10812;51.838;5.838;2023-03-30T14:42:08;7.47;;;2.47;;
21305;SDS011;10812;51.838;5.838;2023-03-30T14:44:43;12.57;;;2.17;;
21305;SDS011;10812;51.838;5.838;2023-03-30T14:47:13;14.83;;;3.07;;
21305;SDS011;10812;51.838;5.838;2023-03-30T14:49:42;10.57;;;2.23;;
21305;SDS011;10812;51.838;5.838;2023-03-30T14:52:14;9.40;;;2.43;;
21305;SDS011;10812;51.838;5.838;2023-03-30T14:54:44;9.83;;;2.07;;
21305;SDS011;10812;51.838;5.838;2023-03-30T14:57:32;13.93;;;3.43;;
21305;SDS011;10812;51.838;5.838;2023-03-30T15:00:05;12.87;;;2.60;;
21305;SDS011;10812;51.838;5.838;2023-03-30T15:02:45;7.97;;;2.47;;
21305;SDS011;10812;51.838;5.838;2023-03-30T15:05:17;11.57;;;2.77;;
21305;SDS011;10812;51.838;5.838;2023-03-30T15:07:47;8.20;;;2.50;;
21305;SDS011;10812;51.838;5.838;2023-03-30T15:10:20;9.80;;;2.37;;
21305;SDS011;10812;51.838;5.838;2023-03-30T15:12:50;11.00;;;3.27;;
21305;SDS011;10812;51.838;5.838;2023-03-30T15:15:23;10.63;;;2.67;;
21305;SDS011;10812;51.838;5.838;2023-03-30T15:17:53;6.07;;;2.07;;
21305;SDS011;10812;51.838;5.838;2023-03-30T15:20:22;11.67;;;2.23;;
21305;SDS011;10812;51.838;5.838;2023-03-30T15:22:53;6.17;;;2.30;;
21305;SDS011;10812;51.838;5.838;2023-03-30T15:25:22;7.53;;;1.50;;
21305;SDS011;10812;51.838;5.838;2023-03-30T15:27:57;5.43;;;2.07;;
21305;SDS011;10812;51.838;5.838;2023-03-30T15:30:30;8.03;;;1.97;;
21305;SDS011;10812;51.838;5.838;2023-03-30T15:33:01;7.83;;;1.87;;
21305;SDS011;10812;51.838;5.838;2023-03-30T15:35:31;11.23;;;2.67;;
21305;SDS011;10812;51.838;5.838;2023-03-30T15:38:02;7.87;;;2.07;;
21305;SDS011;10812;51.838;5.838;2023-03-30T15:40:39;7.67;;;2.40;;
21305;SDS011;10812;51.838;5.838;2023-03-30T15:43:16;9.67;;;2.27;;
21305;SDS011;10812;51.838;5.838;2023-03-30T15:45:50;12.43;;;2.77;;
21305;SDS011;10812;51.838;5.838;2023-03-30T15:48:21;10.77;;;2.27;;
21305;SDS011;10812;51.838;5.838;2023-03-30T15:50:53;6.30;;;2.50;;
21305;SDS011;10812;51.838;5.838;2023-03-30T15:53:29;5.93;;;2.47;;